No.3tokuyomaru — JD3132 — position and weather

sailwx.info

Track history (hours):
 
Tides and Currents Weather Stations Pressure Air Temp Water Temp Dewpoint Dewpoint Depression Visibility Wind Speed Wind Dir Waves Ship Positions

No.3tokuyomaru

Last reported at 2014-Dec-20 00:25 UTC. Time now 2014-Dec-22 07:02 UTC.
Position N 34°37' E 135°01'.

Length 67 m; draft 4.6 m.

Type: Tanker. MMSI: 431002151.

Date/timePositionNaut miles runAvg speedWind from/ knotsBaromVisibWave heightAir tempDewpointWater temp
2014-Dec-20 00:25N 34°37' E 135°01'1113.4
2014-Dec-19 23:34N 34°34' E 135°14'6 2.8
2014-Dec-19 21:23N 34°31' E 135°21'0 0.0
2014-Dec-19 20:11N 34°31' E 135°21'0 0.0
2014-Dec-19 19:29N 34°31' E 135°21'0 0.0
2014-Dec-19 18:23N 34°31' E 135°21'0 0.0
2014-Dec-19 17:23N 34°31' E 135°21'0 0.0
2014-Dec-19 15:29N 34°31' E 135°21'0 0.0
2014-Dec-19 14:23N 34°31' E 135°21'0 0.0
2014-Dec-19 13:29N 34°31' E 135°21'0 0.0
2014-Dec-19 12:05N 34°31' E 135°21'0 0.0
2014-Dec-19 10:29N 34°31' E 135°21'0 0.0
2014-Dec-19 09:29N 34°31' E 135°21'0 0.0
2014-Dec-19 08:29N 34°31' E 135°21'0 0.0
2014-Dec-19 07:29N 34°31' E 135°21'2 2.1
2014-Dec-19 06:25N 34°33' E 135°23'3 0.4
2014-Dec-19 00:15N 34°33' E 135°26'5 6.3
2014-Dec-18 23:27N 34°32' E 135°20'0 0.0
2014-Dec-18 22:15N 34°32' E 135°20'0 0.1
2014-Dec-18 21:33N 34°32' E 135°20'0 0.0
2014-Dec-18 20:21N 34°32' E 135°20'0 0.0
2014-Dec-18 19:09N 34°32' E 135°20'0 0.0
2014-Dec-18 17:33N 34°32' E 135°20'0 0.0
2014-Dec-18 16:33N 34°32' E 135°20'0 0.0
2014-Dec-18 15:21N 34°32' E 135°20'0 0.0
2014-Dec-18 13:27N 34°32' E 135°20'0 0.0
2014-Dec-18 10:33N 34°32' E 135°20'0 0.0
2014-Dec-18 08:21N 34°32' E 135°20'0 0.0
2014-Dec-18 07:15N 34°32' E 135°20'0 0.0
2014-Dec-18 06:33N 34°32' E 135°20'2 1.8
2014-Dec-18 05:33N 34°33' E 135°18'1212.2
2014-Dec-18 04:33N 34°35' E 135°04'  
2014-Dec-10 11:25N 34°37' E 134°54'1112.2
2014-Dec-10 10:33N 34°35' E 135°07'1312.8
2014-Dec-10 09:34N 34°34' E 135°22'3 0.6
2014-Dec-10 04:03N 34°33' E 135°26'3 5.2
2014-Dec-10 03:33N 34°33' E 135°23'3 2.7
2014-Dec-10 02:21N 34°32' E 135°20'0 0.0
2014-Dec-10 01:15N 34°32' E 135°20'0 0.0
2014-Dec-10 00:33N 34°32' E 135°20'  
Track history (hours):
 
Tides and Currents Weather Stations Pressure Air Temp Water Temp Dewpoint Dewpoint Depression Visibility Wind Speed Wind Dir Waves Ship Positions

No.3tokuyomaru

Last reported at 2014-Dec-20 00:25 UTC. Time now 2014-Dec-22 07:02 UTC.
Position N 34°37' E 135°01'.

Length 67 m; draft 4.6 m.

Type: Tanker. MMSI: 431002151.

Date/timePositionNaut miles runAvg speedWind from/ knotsBaromVisibWave heightAir tempDewpointWater temp
2014-Dec-20 00:25N 34°37' E 135°01'1113.4
2014-Dec-19 23:34N 34°34' E 135°14'6 2.8
2014-Dec-19 21:23N 34°31' E 135°21'0 0.0
2014-Dec-19 20:11N 34°31' E 135°21'0 0.0
2014-Dec-19 19:29N 34°31' E 135°21'0 0.0
2014-Dec-19 18:23N 34°31' E 135°21'0 0.0
2014-Dec-19 17:23N 34°31' E 135°21'0 0.0
2014-Dec-19 15:29N 34°31' E 135°21'0 0.0
2014-Dec-19 14:23N 34°31' E 135°21'0 0.0
2014-Dec-19 13:29N 34°31' E 135°21'0 0.0
2014-Dec-19 12:05N 34°31' E 135°21'0 0.0
2014-Dec-19 10:29N 34°31' E 135°21'0 0.0
2014-Dec-19 09:29N 34°31' E 135°21'0 0.0
2014-Dec-19 08:29N 34°31' E 135°21'0 0.0
2014-Dec-19 07:29N 34°31' E 135°21'2 2.1
2014-Dec-19 06:25N 34°33' E 135°23'3 0.4
2014-Dec-19 00:15N 34°33' E 135°26'5 6.3
2014-Dec-18 23:27N 34°32' E 135°20'0 0.0
2014-Dec-18 22:15N 34°32' E 135°20'0 0.1
2014-Dec-18 21:33N 34°32' E 135°20'0 0.0
2014-Dec-18 20:21N 34°32' E 135°20'0 0.0
2014-Dec-18 19:09N 34°32' E 135°20'0 0.0
2014-Dec-18 17:33N 34°32' E 135°20'0 0.0
2014-Dec-18 16:33N 34°32' E 135°20'0 0.0
2014-Dec-18 15:21N 34°32' E 135°20'0 0.0
2014-Dec-18 13:27N 34°32' E 135°20'0 0.0
2014-Dec-18 10:33N 34°32' E 135°20'0 0.0
2014-Dec-18 08:21N 34°32' E 135°20'0 0.0
2014-Dec-18 07:15N 34°32' E 135°20'0 0.0
2014-Dec-18 06:33N 34°32' E 135°20'2 1.8
2014-Dec-18 05:33N 34°33' E 135°18'1212.2
2014-Dec-18 04:33N 34°35' E 135°04'  
2014-Dec-10 11:25N 34°37' E 134°54'1112.2
2014-Dec-10 10:33N 34°35' E 135°07'1312.8
2014-Dec-10 09:34N 34°34' E 135°22'3 0.6
2014-Dec-10 04:03N 34°33' E 135°26'3 5.2
2014-Dec-10 03:33N 34°33' E 135°23'3 2.7
2014-Dec-10 02:21N 34°32' E 135°20'0 0.0
2014-Dec-10 01:15N 34°32' E 135°20'0 0.0
2014-Dec-10 00:33N 34°32' E 135°20'  

Dump ship's entire track history